createdAt,value
2023-05-16T00:02:25.997Z,11.88
2023-05-16T00:04:58.053Z,11.87
2023-05-16T00:07:29.715Z,11.87
2023-05-16T00:10:01.732Z,11.87
2023-05-16T00:12:33.347Z,11.89
2023-05-16T00:15:10.403Z,11.94
2023-05-16T00:17:46.930Z,11.95
2023-05-16T00:20:23.681Z,11.97
2023-05-16T00:22:55.736Z,11.98
2023-05-16T00:25:29.804Z,12.00
2023-05-16T00:28:01.360Z,11.98
2023-05-16T00:30:33.156Z,11.98
2023-05-16T00:33:04.802Z,11.95
2023-05-16T00:35:36.519Z,11.92
2023-05-16T00:38:08.282Z,11.92
2023-05-16T00:40:42.102Z,11.90
2023-05-16T00:43:13.641Z,11.90
2023-05-16T00:45:45.992Z,11.90
2023-05-16T00:48:21.166Z,11.89
2023-05-16T00:50:53.870Z,11.89
2023-05-16T00:53:25.966Z,11.86
2023-05-16T00:55:58.754Z,11.85
2023-05-16T00:58:32.443Z,11.82
2023-05-16T01:01:05.337Z,11.83
2023-05-16T01:03:38.212Z,11.82
2023-05-16T01:06:10.263Z,11.84
2023-05-16T01:08:42.175Z,11.83
2023-05-16T01:11:30.616Z,11.81
2023-05-16T01:14:25.127Z,11.81
2023-05-16T01:17:21.597Z,11.77
2023-05-16T01:19:56.314Z,11.74
2023-05-16T01:22:46.347Z,11.70
2023-05-16T01:25:51.082Z,11.64
2023-05-16T01:28:23.032Z,11.59
2023-05-16T01:30:54.782Z,11.56
2023-05-16T01:33:26.695Z,11.53
2023-05-16T01:36:29.067Z,11.49
2023-05-16T01:39:28.034Z,11.47
2023-05-16T01:42:08.109Z,11.45
2023-05-16T01:44:49.289Z,11.44
2023-05-16T01:47:23.375Z,11.42
2023-05-16T01:50:14.120Z,11.45
2023-05-16T01:52:52.606Z,11.47
2023-05-16T01:55:43.219Z,11.47
2023-05-16T01:58:17.484Z,11.47
2023-05-16T02:00:49.260Z,11.49
2023-05-16T02:03:21.381Z,11.49
2023-05-16T02:05:53.197Z,11.52
2023-05-16T02:08:26.730Z,11.50
2023-05-16T02:10:58.340Z,11.50
2023-05-16T02:13:32.967Z,11.51
2023-05-16T02:18:57.673Z,11.47
2023-05-16T02:21:29.597Z,11.48
2023-05-16T02:24:01.637Z,11.50
2023-05-16T02:26:33.835Z,11.50
2023-05-16T02:29:06.605Z,11.52
2023-05-16T02:31:38.285Z,11.51
2023-05-16T02:34:11.154Z,11.52
2023-05-16T02:36:42.810Z,11.54
2023-05-16T02:39:14.938Z,11.54
2023-05-16T02:41:46.621Z,11.53
2023-05-16T02:44:18.303Z,11.51
2023-05-16T02:46:49.956Z,11.51
2023-05-16T02:49:21.664Z,11.51
2023-05-16T02:51:53.491Z,11.50
2023-05-16T02:54:25.147Z,11.48
2023-05-16T02:56:56.859Z,11.49
2023-05-16T02:59:33.678Z,11.48
2023-05-16T03:02:05.700Z,11.49
2023-05-16T03:04:40.024Z,11.50
2023-05-16T03:07:11.672Z,11.51
2023-05-16T03:09:43.340Z,11.50
2023-05-16T03:12:15.062Z,11.50
2023-05-16T03:14:49.764Z,11.48
2023-05-16T03:17:21.490Z,11.46
2023-05-16T03:19:57.015Z,11.43
2023-05-16T03:22:28.706Z,11.43
2023-05-16T03:25:00.335Z,11.42
2023-05-16T03:27:32.088Z,11.42
2023-05-16T03:30:03.958Z,11.41
2023-05-16T03:32:35.618Z,11.38
2023-05-16T03:35:07.805Z,11.34
2023-05-16T03:37:39.691Z,11.26
2023-05-16T03:40:12.344Z,11.23
2023-05-16T03:42:44.224Z,11.20
2023-05-16T03:45:15.980Z,11.14
2023-05-16T03:47:49.787Z,11.06
2023-05-16T03:50:21.803Z,11.02
2023-05-16T03:52:54.647Z,10.95
2023-05-16T03:55:29.853Z,10.90
2023-05-16T03:58:01.533Z,10.82
2023-05-16T04:00:34.871Z,10.77
2023-05-16T04:03:06.875Z,10.77
2023-05-16T04:05:38.639Z,10.71
2023-05-16T04:08:10.677Z,10.69
2023-05-16T04:10:42.734Z,10.65
2023-05-16T04:13:15.521Z,10.64
2023-05-16T04:15:47.566Z,10.66
2023-05-16T04:18:19.392Z,10.67
2023-05-16T04:20:51.484Z,10.70
2023-05-16T04:23:23.260Z,10.72
2023-05-16T04:25:59.167Z,10.72
2023-05-16T04:28:31.379Z,10.73
2023-05-16T04:31:03.487Z,10.73
2023-05-16T04:33:35.204Z,10.69
2023-05-16T04:36:07.081Z,10.66
2023-05-16T04:38:38.842Z,10.65
2023-05-16T04:41:10.603Z,10.59
2023-05-16T04:43:44.646Z,10.49
2023-05-16T04:46:16.459Z,10.42
2023-05-16T04:48:48.247Z,10.40
2023-05-16T04:51:19.793Z,10.35
2023-05-16T04:53:51.418Z,10.33
2023-05-16T04:56:23.017Z,10.35
2023-05-16T04:58:54.828Z,10.43
2023-05-16T05:01:26.510Z,10.57
2023-05-16T05:03:58.304Z,10.66
2023-05-16T05:06:30.013Z,10.68
2023-05-16T05:09:06.464Z,10.69
2023-05-16T05:11:41.007Z,10.69
2023-05-16T05:14:12.749Z,10.68
2023-05-16T05:16:47.208Z,10.70
2023-05-16T05:19:18.936Z,10.66
2023-05-16T05:21:50.731Z,10.60
2023-05-16T05:24:22.495Z,10.53
2023-05-16T05:26:56.635Z,10.51
2023-05-16T05:29:30.763Z,10.50
2023-05-16T05:32:03.009Z,10.49
2023-05-16T05:34:35.066Z,10.47
2023-05-16T05:37:06.683Z,10.47
2023-05-16T05:39:38.321Z,10.51
2023-05-16T05:42:09.953Z,10.54
2023-05-16T05:44:41.844Z,10.61
2023-05-16T05:47:13.606Z,10.63
2023-05-16T05:49:51.085Z,10.63
2023-05-16T05:52:22.820Z,10.62
2023-05-16T05:54:54.863Z,10.66
2023-05-16T05:57:26.791Z,10.68
2023-05-16T05:59:58.503Z,10.74
2023-05-16T06:02:30.191Z,10.79
2023-05-16T06:05:02.081Z,10.85
2023-05-16T06:07:33.887Z,10.91
2023-05-16T06:10:09.138Z,10.93
2023-05-16T06:12:40.986Z,11.00
2023-05-16T06:15:13.157Z,11.03
2023-05-16T06:17:45.227Z,11.11
2023-05-16T06:20:17.565Z,11.22
2023-05-16T06:22:49.461Z,11.27
2023-05-16T06:25:21.515Z,11.31
2023-05-16T06:27:53.169Z,11.25
2023-05-16T06:30:24.986Z,11.21
2023-05-16T06:32:57.365Z,11.15
2023-05-16T06:35:29.282Z,11.07
2023-05-16T06:38:01.371Z,11.01
2023-05-16T06:40:33.186Z,10.91
2023-05-16T06:43:04.988Z,10.80
2023-05-16T06:45:37.230Z,10.73
2023-05-16T06:48:09.495Z,10.70
2023-05-16T06:50:43.931Z,10.70
2023-05-16T06:53:15.871Z,10.66
2023-05-16T06:55:50.109Z,10.67
2023-05-16T06:58:22.157Z,10.67
2023-05-16T07:00:57.850Z,10.69
2023-05-16T07:03:32.180Z,10.70
2023-05-16T07:06:04.506Z,10.74
2023-05-16T07:08:37.299Z,10.78
2023-05-16T07:11:11.489Z,10.82
2023-05-16T07:13:43.477Z,10.81
2023-05-16T07:16:15.243Z,10.77
2023-05-16T07:18:47.342Z,10.74
2023-05-16T07:21:19.916Z,10.76
2023-05-16T07:23:51.601Z,10.80
2023-05-16T07:26:24.163Z,10.81
2023-05-16T07:28:56.474Z,10.86
2023-05-16T07:31:28.339Z,10.85
2023-05-16T07:34:00.069Z,10.86
2023-05-16T07:36:32.140Z,10.82
2023-05-16T07:39:04.756Z,10.78
2023-05-16T07:41:36.468Z,10.75
2023-05-16T07:44:11.634Z,10.75
2023-05-16T07:46:46.212Z,10.73
2023-05-16T07:49:17.994Z,10.72
2023-05-16T07:51:49.800Z,10.74
2023-05-16T07:54:21.608Z,10.77
